Time;durP1;ratioP1;P1;durP2;ratioP2;P2;SDS_P1;SDS_P2;PMS_P1;PMS_P2;Temp;Humidity;BMP_temperature;BMP_pressure;BME280_temperature;BME280_humidity;BME280_pressure;Samples;Min_cycle;Max_cycle;Signal;HPM_P1;HPM_P2
2023/03/02 00:01:52;;;;;;;11.13;5.25;;;-3.70;99.90;;;;;;5056059;28;25063;-69
2023/03/02 00:04:41;;;;;;;12.18;5.00;;;-3.70;99.90;;;;;;5057257;28;25146;-70
2023/03/02 00:07:11;;;;;;;12.40;5.30;;;-3.70;99.90;;;;;;5057731;28;25063;-70
2023/03/02 00:09:38;;;;;;;13.13;4.93;;;-3.70;99.90;;;;;;5057247;28;25060;-70
2023/03/02 00:12:07;;;;;;;16.10;6.15;;;-3.70;99.90;;;;;;5055818;28;25055;-70
2023/03/02 00:14:36;;;;;;;18.52;7.50;;;-3.70;99.90;;;;;;5056931;28;25096;-69
2023/03/02 00:17:06;;;;;;;15.80;6.47;;;-3.80;99.90;;;;;;5056915;28;25130;-70
2023/03/02 00:19:35;;;;;;;9.15;5.10;;;-3.80;99.90;;;;;;5056221;28;25068;-69
2023/03/02 00:22:02;;;;;;;11.60;4.88;;;-3.90;99.90;;;;;;5056854;28;25065;-69
2023/03/02 00:24:29;;;;;;;21.33;7.47;;;-3.90;99.90;;;;;;5056768;28;25057;-69
2023/03/02 00:26:57;;;;;;;12.88;6.40;;;-3.90;99.90;;;;;;5057453;28;25048;-69
2023/03/02 00:29:24;;;;;;;15.82;7.47;;;-3.90;99.90;;;;;;5055573;28;25062;-69
2023/03/02 00:31:51;;;;;;;16.20;7.05;;;-4.00;99.90;;;;;;5056900;28;25108;-69
2023/03/02 00:34:19;;;;;;;18.00;8.20;;;-4.00;99.90;;;;;;5055396;28;25060;-69
2023/03/02 00:36:48;;;;;;;15.50;5.97;;;-4.00;99.90;;;;;;5057317;28;25126;-69
2023/03/02 00:39:18;;;;;;;16.55;6.63;;;-4.00;99.90;;;;;;5055434;28;25088;-69
2023/03/02 00:41:47;;;;;;;14.68;5.60;;;-4.00;99.90;;;;;;5054901;28;25053;-69
2023/03/02 00:44:16;;;;;;;12.93;5.25;;;-4.10;99.90;;;;;;5056149;28;25110;-69
2023/03/02 00:46:44;;;;;;;16.23;6.72;;;-4.10;99.90;;;;;;5056516;28;25067;-69
2023/03/02 00:49:12;;;;;;;23.30;9.25;;;-4.10;99.90;;;;;;5056317;28;25048;-69
2023/03/02 00:51:39;;;;;;;18.77;8.35;;;-4.10;99.90;;;;;;5055241;28;25064;-69
2023/03/02 00:54:06;;;;;;;15.98;7.00;;;-4.10;99.90;;;;;;5056317;28;25116;-69
2023/03/02 00:56:33;;;;;;;16.95;8.02;;;-4.10;99.90;;;;;;5056875;28;25068;-69
2023/03/02 00:59:05;;;;;;;13.73;6.38;;;-4.10;99.90;;;;;;5054344;28;25056;-69
2023/03/02 01:01:33;;;;;;;16.73;6.45;;;-4.20;99.90;;;;;;5055174;28;25078;-69
2023/03/02 01:04:00;;;;;;;12.90;5.88;;;-4.20;99.90;;;;;;5055064;28;25118;-69
2023/03/02 01:06:28;;;;;;;16.25;5.53;;;-4.20;99.90;;;;;;5056762;28;25134;-69
2023/03/02 01:08:55;;;;;;;17.45;6.85;;;-4.30;99.90;;;;;;5056163;28;25065;-69
2023/03/02 01:11:22;;;;;;;18.90;8.07;;;-4.30;99.90;;;;;;5056842;28;25073;-69
2023/03/02 01:13:50;;;;;;;16.55;7.20;;;-4.30;99.90;;;;;;5056396;28;25064;-69
2023/03/02 01:16:17;;;;;;;14.40;6.53;;;-4.30;99.90;;;;;;5056174;28;25147;-69
2023/03/02 01:18:45;;;;;;;14.82;6.60;;;-4.40;99.90;;;;;;5056134;28;25068;-69
2023/03/02 01:21:14;;;;;;;19.00;6.20;;;-4.40;99.90;;;;;;5055163;28;25113;-69
2023/03/02 01:23:41;;;;;;;14.90;6.35;;;-4.40;99.90;;;;;;5055573;28;25068;-69
2023/03/02 01:26:09;;;;;;;19.88;7.97;;;-4.50;99.90;;;;;;5056632;28;25121;-69
2023/03/02 01:28:36;;;;;;;20.85;7.82;;;-4.50;99.90;;;;;;5054907;28;25057;-69
2023/03/02 01:31:04;;;;;;;19.08;8.27;;;-4.50;99.90;;;;;;5060149;28;25064;-69
2023/03/02 01:33:32;;;;;;;19.50;8.10;;;-4.40;99.90;;;;;;5058771;28;25070;-69
2023/03/02 01:35:59;;;;;;;15.93;8.15;;;-4.50;99.90;;;;;;5059970;28;25100;-69
2023/03/02 01:38:27;;;;;;;15.15;7.13;;;-4.50;99.90;;;;;;5059869;28;25077;-69
2023/03/02 01:40:54;;;;;;;14.63;6.63;;;-4.50;99.90;;;;;;5048963;28;25070;-69
2023/03/02 01:43:22;;;;;;;15.77;6.75;;;-4.50;99.90;;;;;;5040441;28;25073;-69
2023/03/02 01:45:53;;;;;;;17.40;6.55;;;-4.50;99.90;;;;;;5022217;28;25137;-69
2023/03/02 01:48:30;;;;;;;15.13;6.05;;;-4.50;99.90;;;;;;5040075;28;25064;-69
2023/03/02 01:51:00;;;;;;;15.65;6.00;;;-4.50;99.90;;;;;;5039658;28;25094;-68
2023/03/02 01:53:30;;;;;;;13.13;6.47;;;-4.60;99.90;;;;;;5040147;28;25072;-69
2023/03/02 01:55:59;;;;;;;19.33;6.60;;;-4.60;99.90;;;;;;5039607;28;25104;-69
2023/03/02 01:58:28;;;;;;;13.07;5.47;;;-4.60;99.90;;;;;;5040070;28;25061;-69
2023/03/02 02:00:57;;;;;;;15.70;5.90;;;-4.60;99.90;;;;;;5021906;28;25069;-68
2023/03/02 02:03:28;;;;;;;13.57;5.53;;;-4.70;99.90;;;;;;5039386;28;25111;-69
2023/03/02 02:06:21;;;;;;;16.27;5.88;;;-4.70;99.90;;;;;;5021796;28;25065;-69
2023/03/02 02:08:49;;;;;;;13.38;5.65;;;-4.70;99.90;;;;;;5040149;28;25104;-68
2023/03/02 02:11:17;;;;;;;14.13;5.00;;;-4.80;99.90;;;;;;5039191;28;25060;-68
2023/03/02 02:13:45;;;;;;;13.73;5.93;;;-4.80;99.90;;;;;;5039262;28;25167;-68
2023/03/02 02:16:12;;;;;;;8.90;4.65;;;-4.80;99.90;;;;;;5039700;28;25061;-68
2023/03/02 02:18:41;;;;;;;20.48;6.68;;;-4.80;99.90;;;;;;5039679;28;25114;-68
2023/03/02 02:21:08;;;;;;;13.48;5.07;;;-4.80;99.90;;;;;;5039101;28;25055;-68
2023/03/02 02:24:11;;;;;;;13.55;5.95;;;-4.80;99.90;;;;;;5039593;28;25070;-68
2023/03/02 02:26:49;;;;;;;12.57;5.18;;;-4.70;99.90;;;;;;5021600;28;25059;-68
2023/03/02 02:29:27;;;;;;;10.02;4.25;;;-4.80;99.90;;;;;;5021355;28;25123;-68
2023/03/02 02:32:17;;;;;;;13.20;4.93;;;-4.80;99.90;;;;;;5021327;28;25113;-68
2023/03/02 02:34:51;;;;;;;11.93;4.45;;;-4.80;99.90;;;;;;5038828;28;25072;-68
2023/03/02 02:37:32;;;;;;;13.00;5.70;;;-4.90;99.90;;;;;;5039483;28;25097;-68
2023/03/02 02:40:06;;;;;;;8.45;3.63;;;-4.90;99.90;;;;;;5021133;28;25154;-69
2023/03/02 02:42:38;;;;;;;13.15;4.70;;;-4.90;99.90;;;;;;5037827;28;25078;-68
2023/03/02 02:45:18;;;;;;;16.10;5.07;;;-5.00;99.90;;;;;;5039197;28;25114;-68
2023/03/02 02:47:46;;;;;;;13.95;5.80;;;-4.90;99.90;;;;;;5037630;28;25117;-68
2023/03/02 02:50:23;;;;;;;11.40;5.45;;;-5.00;99.90;;;;;;5039109;28;25111;-68
2023/03/02 02:53:12;;;;;;;13.20;5.28;;;-5.00;99.90;;;;;;5020966;28;25070;-68
2023/03/02 02:55:40;;;;;;;10.93;4.57;;;-5.00;99.90;;;;;;5037592;28;25085;-68
2023/03/02 02:58:37;;;;;;;13.32;5.18;;;-5.00;99.90;;;;;;5038959;28;25078;-68
2023/03/02 03:01:05;;;;;;;;;;;-5.00;99.90;;;;;;5038708;28;25069;-68
2023/03/02 03:03:39;;;;;;;10.52;4.57;;;-5.10;99.90;;;;;;5038469;28;24064;-68
2023/03/02 03:06:14;;;;;;;10.63;3.85;;;-5.10;99.90;;;;;;5039011;28;25115;-68
2023/03/02 03:08:45;;;;;;;14.05;4.60;;;-5.10;99.90;;;;;;5038520;28;25065;-68
2023/03/02 03:11:23;;;;;;;10.25;4.10;;;-5.10;99.90;;;;;;5020520;28;25061;-68
2023/03/02 03:14:10;;;;;;;10.05;4.85;;;-5.10;99.90;;;;;;5038145;28;25080;-68
2023/03/02 03:16:38;;;;;;;;;;;-5.10;99.90;;;;;;5038958;28;25049;-68
2023/03/02 03:19:17;;;;;;;10.85;4.05;;;-5.20;99.90;;;;;;5038535;28;24108;-68
2023/03/02 03:21:45;;;;;;;14.43;5.15;;;-5.20;99.90;;;;;;5038285;28;25099;-68
2023/03/02 03:24:12;;;;;;;9.27;4.35;;;-5.20;99.90;;;;;;5037964;28;25128;-68
2023/03/02 03:26:39;;;;;;;10.63;4.53;;;-5.20;99.90;;;;;;5020547;28;25171;-68
2023/03/02 03:29:07;;;;;;;12.55;5.05;;;-5.10;99.90;;;;;;5038373;28;25091;-68
2023/03/02 03:31:34;;;;;;;13.13;3.63;;;-5.10;99.90;;;;;;5038209;28;25068;-68
2023/03/02 03:34:00;;;;;;;9.35;4.20;;;-5.10;99.90;;;;;;5037659;28;25136;-68
2023/03/02 03:36:30;;;;;;;15.88;4.82;;;-5.10;99.90;;;;;;5038243;28;25088;-68
2023/03/02 03:38:58;;;;;;;8.82;4.13;;;-5.10;99.90;;;;;;5020106;28;25060;-68
2023/03/02 03:41:26;;;;;;;10.07;4.55;;;-5.10;99.90;;;;;;5037171;28;25065;-68
2023/03/02 03:43:54;;;;;;;11.45;4.45;;;-5.20;99.90;;;;;;5020223;28;25138;-68
2023/03/02 03:46:21;;;;;;;11.05;4.22;;;-5.20;99.90;;;;;;5019959;28;25126;-68
2023/03/02 03:48:48;;;;;;;145.52;33.72;;;-5.20;99.90;;;;;;5037386;28;25094;-68
2023/03/02 03:51:16;;;;;;;68.40;18.58;;;-5.20;99.90;;;;;;5038052;28;25132;-68
2023/03/02 03:53:43;;;;;;;99.90;27.10;;;-5.20;99.90;;;;;;5037773;28;25078;-68
2023/03/02 03:56:11;;;;;;;55.50;16.40;;;-5.10;99.90;;;;;;5019834;28;25061;-68
2023/03/02 03:58:39;;;;;;;49.97;17.00;;;-5.10;99.90;;;;;;5019782;28;25086;-68
2023/03/02 04:01:06;;;;;;;40.92;14.02;;;-5.10;99.90;;;;;;5037408;28;25078;-68
2023/03/02 04:03:33;;;;;;;43.92;13.45;;;-5.00;99.90;;;;;;5019591;28;25119;-68
2023/03/02 04:06:01;;;;;;;24.10;8.85;;;-5.00;99.90;;;;;;5037215;28;25079;-68
2023/03/02 04:08:28;;;;;;;32.25;11.25;;;-5.10;99.90;;;;;;5019598;28;25053;-68
2023/03/02 04:10:55;;;;;;;33.17;11.05;;;-5.10;99.90;;;;;;5037163;28;25102;-68
2023/03/02 04:13:21;;;;;;;23.80;9.13;;;-5.10;99.90;;;;;;5037572;28;25063;-68
2023/03/02 04:15:49;;;;;;;13.15;5.20;;;-5.10;99.90;;;;;;5037005;28;25064;-68
2023/03/02 04:18:16;;;;;;;14.65;5.15;;;-5.10;99.90;;;;;;5019232;28;25144;-68
2023/03/02 04:20:43;;;;;;;22.33;7.28;;;-5.20;99.90;;;;;;5019539;28;25074;-68
2023/03/02 04:23:11;;;;;;;20.38;7.47;;;-5.20;99.90;;;;;;5037139;28;25101;-68
2023/03/02 04:25:39;;;;;;;24.80;8.57;;;-5.20;99.90;;;;;;5037382;28;25081;-67
2023/03/02 04:28:07;;;;;;;26.85;10.30;;;-5.20;99.90;;;;;;5019248;28;25046;-68
2023/03/02 04:30:34;;;;;;;26.15;9.70;;;-5.20;99.90;;;;;;5037393;28;25090;-68
2023/03/02 04:33:01;;;;;;;22.45;8.32;;;-5.20;99.90;;;;;;5036619;28;25062;-68
2023/03/02 04:35:29;;;;;;;26.20;9.15;;;-5.20;99.90;;;;;;5036650;28;25082;-68
2023/03/02 04:37:56;;;;;;;25.55;10.00;;;-5.20;99.90;;;;;;5037133;28;25063;-68
2023/03/02 04:40:23;;;;;;;22.67;8.50;;;-5.20;99.90;;;;;;5036894;28;25076;-68
2023/03/02 04:42:50;;;;;;;18.17;8.38;;;-5.20;99.90;;;;;;5019039;28;25056;-68
2023/03/02 04:45:18;;;;;;;25.70;9.85;;;-5.20;99.90;;;;;;5036508;28;25094;-67
2023/03/02 04:47:45;;;;;;;21.13;8.75;;;-5.30;99.90;;;;;;5036964;28;25111;-68
2023/03/02 04:50:14;;;;;;;20.48;9.35;;;-5.30;99.90;;;;;;5036444;28;25074;-68
2023/03/02 04:52:41;;;;;;;21.55;7.88;;;-5.30;99.90;;;;;;5036360;28;25071;-68
2023/03/02 04:55:15;;;;;;;15.70;5.93;;;-5.30;99.90;;;;;;5036807;28;25069;-68
2023/03/02 04:57:43;;;;;;;17.50;6.47;;;-5.30;99.90;;;;;;5036568;28;25043;-68
2023/03/02 05:00:11;;;;;;;15.77;6.20;;;-5.30;99.90;;;;;;5018786;28;25057;-68
2023/03/02 05:02:40;;;;;;;13.52;5.57;;;-5.30;99.90;;;;;;5036847;28;25064;-68
2023/03/02 05:05:13;;;;;;;13.40;5.80;;;-5.40;99.90;;;;;;5018249;28;25052;-68
2023/03/02 05:07:40;;;;;;;13.18;5.47;;;-5.40;99.90;;;;;;5036467;28;25070;-68
2023/03/02 05:10:08;;;;;;;15.18;5.55;;;-5.40;99.90;;;;;;5036778;28;25116;-68
2023/03/02 05:12:54;;;;;;;12.88;5.47;;;-5.40;99.90;;;;;;5036710;28;25064;-68
2023/03/02 05:15:35;;;;;;;16.02;6.25;;;-5.40;99.90;;;;;;5035103;28;25058;-68
2023/03/02 05:18:04;;;;;;;16.50;6.20;;;-5.40;99.90;;;;;;5036095;28;25060;-68
2023/03/02 05:20:31;;;;;;;20.45;7.82;;;-5.40;99.90;;;;;;5018693;28;25071;-68
2023/03/02 05:23:02;;;;;;;19.52;7.55;;;-5.40;99.90;;;;;;5036678;28;25068;-67
2023/03/02 05:25:32;;;;;;;22.02;8.23;;;-5.40;99.90;;;;;;5036098;28;25060;-68
2023/03/02 05:28:00;;;;;;;14.93;7.03;;;-5.50;99.90;;;;;;5036382;28;25090;-67
2023/03/02 05:30:29;;;;;;;19.10;6.68;;;-5.40;99.90;;;;;;5018437;28;25055;-68
2023/03/02 05:32:57;;;;;;;22.08;7.63;;;-5.40;99.90;;;;;;5035770;28;25078;-67
2023/03/02 05:35:24;;;;;;;16.65;7.00;;;-5.40;99.90;;;;;;5018463;28;25058;-68
2023/03/02 05:37:51;;;;;;;16.27;7.00;;;-5.40;99.90;;;;;;5035064;28;25059;-67
2023/03/02 05:40:20;;;;;;;17.85;6.30;;;-5.50;99.90;;;;;;5035926;28;25133;-68
2023/03/02 05:42:48;;;;;;;15.73;6.93;;;-5.50;99.90;;;;;;5035959;28;25076;-68
2023/03/02 05:45:23;;;;;;;19.98;6.85;;;-5.50;99.90;;;;;;5035923;28;25064;-67
2023/03/02 05:47:51;;;;;;;15.50;6.55;;;-5.50;99.90;;;;;;5036083;28;25094;-68
2023/03/02 05:50:18;;;;;;;20.63;7.18;;;-5.50;99.90;;;;;;5036166;28;25088;-67
2023/03/02 05:52:46;;;;;;;15.13;6.93;;;-5.50;99.90;;;;;;5036391;28;25102;-68
2023/03/02 05:55:17;;;;;;;23.45;7.53;;;-5.50;99.90;;;;;;5036401;28;25095;-68
2023/03/02 05:57:45;;;;;;;18.73;7.82;;;-5.50;99.90;;;;;;5035982;28;25135;-68
2023/03/02 06:00:14;;;;;;;21.83;7.97;;;-5.50;99.90;;;;;;5035805;28;25123;-68
2023/03/02 06:02:41;;;;;;;23.42;10.65;;;-5.50;99.90;;;;;;5018195;28;25109;-68
2023/03/02 06:05:13;;;;;;;19.77;7.82;;;-5.50;99.90;;;;;;5036281;28;25094;-68
2023/03/02 06:07:41;;;;;;;18.65;7.68;;;-5.50;99.90;;;;;;5036311;28;25123;-68
2023/03/02 06:10:10;;;;;;;21.10;7.82;;;-5.50;99.90;;;;;;5036240;28;25106;-68
2023/03/02 06:12:37;;;;;;;21.30;7.43;;;-5.50;99.90;;;;;;5035586;28;25131;-67
2023/03/02 06:15:06;;;;;;;28.83;9.55;;;-5.50;99.90;;;;;;5036166;28;25083;-68
2023/03/02 06:17:33;;;;;;;27.35;8.50;;;-5.50;99.90;;;;;;5020642;28;25059;-68
2023/03/02 06:20:01;;;;;;;30.83;9.07;;;-5.40;99.90;;;;;;5039716;28;25068;-68
2023/03/02 06:22:28;;;;;;;31.75;9.20;;;-5.40;99.90;;;;;;5039173;28;25110;-68
2023/03/02 06:24:56;;;;;;;29.80;11.55;;;-5.40;99.90;;;;;;5039054;28;25054;-68
2023/03/02 06:27:23;;;;;;;25.42;9.55;;;-5.30;99.90;;;;;;5021399;28;25061;-68
2023/03/02 06:29:50;;;;;;;24.45;10.35;;;-5.30;99.90;;;;;;5021397;28;25057;-68
2023/03/02 06:32:17;;;;;;;28.60;9.63;;;-5.30;99.90;;;;;;5039520;28;25131;-68
2023/03/02 06:34:44;;;;;;;30.05;10.25;;;-5.30;99.90;;;;;;5039067;28;25079;-68
2023/03/02 06:37:12;;;;;;;23.30;9.25;;;-5.20;99.90;;;;;;5039394;28;25057;-68
2023/03/02 06:39:39;;;;;;;22.40;8.68;;;-5.20;99.90;;;;;;5021152;28;25062;-68
2023/03/02 06:42:06;;;;;;;23.95;8.95;;;-5.20;99.90;;;;;;5039169;28;25126;-67
2023/03/02 06:44:34;;;;;;;21.75;8.93;;;-5.10;99.90;;;;;;5038659;28;25057;-68
2023/03/02 06:47:01;;;;;;;23.80;9.68;;;-5.00;99.90;;;;;;5038670;28;25061;-67
2023/03/02 06:49:29;;;;;;;26.35;10.25;;;-5.00;99.90;;;;;;5021434;28;25103;-68
2023/03/02 06:51:56;;;;;;;30.17;10.32;;;-5.00;99.90;;;;;;5039176;28;25070;-68
2023/03/02 06:54:23;;;;;;;30.77;12.60;;;-4.90;99.90;;;;;;5039061;28;25064;-68
2023/03/02 06:56:50;;;;;;;32.35;10.35;;;-4.80;99.90;;;;;;5038508;28;25072;-68
2023/03/02 06:59:18;;;;;;;18.55;9.27;;;-4.80;99.90;;;;;;5038710;28;25064;-68
2023/03/02 07:01:47;;;;;;;19.80;8.98;;;-4.70;99.90;;;;;;5020993;28;25106;-68
2023/03/02 07:04:14;;;;;;;62.15;19.20;;;-4.60;99.90;;;;;;5038571;28;25102;-68
2023/03/02 07:06:41;;;;;;;37.45;12.63;;;-4.40;99.90;;;;;;5038835;28;25053;-68
2023/03/02 07:09:09;;;;;;;29.73;11.57;;;-4.40;99.90;;;;;;5038185;28;25104;-68
2023/03/02 07:11:36;;;;;;;21.27;8.70;;;-4.30;99.90;;;;;;5038254;28;25090;-68
2023/03/02 07:14:03;;;;;;;22.90;10.27;;;-4.20;99.90;;;;;;5038775;28;25108;-68
2023/03/02 07:16:32;;;;;;;20.15;9.23;;;-4.10;99.90;;;;;;5020551;28;25074;-68
2023/03/02 07:19:00;;;;;;;18.15;9.45;;;-4.10;99.90;;;;;;5038532;28;25079;-68
2023/03/02 07:21:27;;;;;;;24.67;10.38;;;-3.90;99.90;;;;;;5020406;28;25114;-69
2023/03/02 07:23:55;;;;;;;25.50;9.10;;;-3.80;99.90;;;;;;5036783;28;25061;-68
2023/03/02 07:26:22;;;;;;;20.90;10.25;;;-3.70;99.90;;;;;;5020375;28;25087;-68
2023/03/02 07:28:49;;;;;;;22.70;10.27;;;-3.60;99.90;;;;;;5036524;28;25079;-71
2023/03/02 07:31:17;;;;;;;23.75;10.38;;;-3.50;99.90;;;;;;5037903;28;25058;-72
2023/03/02 07:33:44;;;;;;;19.25;8.30;;;-3.40;99.90;;;;;;5037683;28;25074;-75
2023/03/02 07:36:13;;;;;;;21.27;8.60;;;-3.40;99.90;;;;;;5038204;28;25069;-75
2023/03/02 07:38:41;;;;;;;20.80;9.43;;;-3.20;99.90;;;;;;5037664;28;25071;-74
2023/03/02 07:41:09;;;;;;;16.17;8.95;;;-3.10;99.90;;;;;;5036365;28;25161;-76
2023/03/02 07:43:37;;;;;;;23.95;9.98;;;-3.00;99.90;;;;;;5019822;28;25071;-74
2023/03/02 07:46:05;;;;;;;19.48;9.15;;;-2.90;99.90;;;;;;5020024;28;25092;-75
2023/03/02 07:48:33;;;;;;;21.77;8.32;;;-2.80;99.90;;;;;;5022106;28;25057;-76
2023/03/02 07:51:02;;;;;;;23.65;9.38;;;-2.70;99.90;;;;;;5021414;28;25121;-78
2023/03/02 07:53:29;;;;;;;19.98;9.00;;;-2.60;99.90;;;;;;5019434;28;25081;-83
2023/03/02 07:55:59;;;;;;;17.30;7.88;;;-2.50;99.90;;;;;;5036778;28;25074;-80
2023/03/02 07:58:27;;;;;;;17.67;9.55;;;-2.40;99.90;;;;;;5037324;28;25117;-77
2023/03/02 08:00:54;;;;;;;20.05;8.65;;;-2.20;99.90;;;;;;5037442;28;25108;-77
2023/03/02 08:03:22;;;;;;;22.85;9.10;;;-2.10;99.90;;;;;;5037183;28;25125;-78
2023/03/02 08:05:49;;;;;;;20.60;7.85;;;-2.00;99.90;;;;;;5037489;28;25080;-77
2023/03/02 08:08:16;;;;;;;23.15;10.75;;;-1.90;99.90;;;;;;5037658;28;25123;-77
2023/03/02 08:10:43;;;;;;;17.08;9.68;;;-1.80;99.90;;;;;;5037334;28;25068;-83
2023/03/02 08:13:10;;;;;;;19.45;9.85;;;-1.70;99.90;;;;;;5037337;28;25061;-68
2023/03/02 08:15:38;;;;;;;22.20;9.82;;;-1.60;99.90;;;;;;5037162;28;25120;-70
2023/03/02 08:18:07;;;;;;;27.05;11.10;;;-1.60;99.90;;;;;;5036910;28;25086;-71
2023/03/02 08:20:34;;;;;;;22.40;10.40;;;-1.50;99.90;;;;;;5036957;28;25132;-68
2023/03/02 08:23:02;;;;;;;19.35;9.90;;;-1.40;99.90;;;;;;5036904;28;25060;-69
2023/03/02 08:25:30;;;;;;;24.02;12.13;;;-1.30;99.90;;;;;;5037034;28;25054;-70
2023/03/02 08:27:57;;;;;;;20.55;10.50;;;-1.30;99.90;;;;;;5019225;28;25073;-69
2023/03/02 08:30:25;;;;;;;21.08;9.95;;;-1.20;99.90;;;;;;5037038;28;25056;-69
2023/03/02 08:32:53;;;;;;;20.85;9.05;;;-1.10;99.90;;;;;;5019078;28;25111;-69
2023/03/02 08:35:21;;;;;;;23.05;10.10;;;-1.10;99.90;;;;;;5019116;28;25074;-70
2023/03/02 08:37:48;;;;;;;22.90;9.73;;;-1.00;99.90;;;;;;5037159;28;25077;-71
2023/03/02 08:40:15;;;;;;;28.52;13.90;;;-0.90;99.90;;;;;;5036202;28;25080;-69
2023/03/02 08:42:43;;;;;;;27.05;11.68;;;-0.80;99.90;;;;;;5036595;28;25091;-68
2023/03/02 08:45:11;;;;;;;25.38;11.05;;;-0.70;99.90;;;;;;5036553;28;25143;-69
2023/03/02 08:47:38;;;;;;;21.45;10.60;;;-0.60;99.90;;;;;;5036957;28;25100;-68
2023/03/02 08:50:06;;;;;;;30.40;12.13;;;-0.60;99.90;;;;;;5019076;28;25080;-69
2023/03/02 08:52:34;;;;;;;28.35;11.15;;;-0.50;99.90;;;;;;5036918;28;25058;-70
2023/03/02 08:55:01;;;;;;;24.98;11.27;;;-0.40;99.90;;;;;;5036995;28;25064;-69
2023/03/02 08:57:29;;;;;;;23.67;10.70;;;-0.40;99.90;;;;;;5019201;28;25088;-70
2023/03/02 08:59:57;;;;;;;21.08;9.65;;;-0.30;99.90;;;;;;5018797;28;25053;-71
2023/03/02 09:02:24;;;;;;;24.80;10.75;;;-0.20;99.90;;;;;;5036906;28;25066;-71
2023/03/02 09:04:52;;;;;;;28.70;11.32;;;-0.20;99.90;;;;;;5036490;28;25060;-70
2023/03/02 09:07:20;;;;;;;26.25;12.02;;;-0.10;99.90;;;;;;5036891;28;25117;-72
2023/03/02 09:09:47;;;;;;;31.08;13.25;;;-0.10;99.90;;;;;;5036806;28;25061;-71
2023/03/02 09:12:15;;;;;;;28.30;12.90;;;0.00;99.90;;;;;;5036843;28;25074;-70
2023/03/02 09:14:42;;;;;;;30.73;13.68;;;0.00;99.90;;;;;;5018658;28;25052;-72
2023/03/02 09:17:14;;;;;;;30.00;13.60;;;0.10;99.90;;;;;;5018636;28;25093;-71
2023/03/02 09:19:42;;;;;;;35.13;14.80;;;0.10;99.90;;;;;;5036159;28;25080;-70
2023/03/02 09:22:09;;;;;;;29.85;13.25;;;0.10;99.90;;;;;;5036609;28;25113;-70
2023/03/02 09:24:37;;;;;;;30.13;14.13;;;0.10;99.90;;;;;;5019012;28;25051;-71
2023/03/02 09:27:04;;;;;;;29.38;13.77;;;0.20;99.90;;;;;;5036141;28;25080;-70
2023/03/02 09:29:32;;;;;;;31.88;13.77;;;0.20;99.90;;;;;;5036647;28;25069;-70
2023/03/02 09:31:59;;;;;;;28.67;12.75;;;0.20;99.90;;;;;;5018690;28;25138;-70
2023/03/02 09:34:27;;;;;;;37.47;14.05;;;0.30;99.90;;;;;;5035995;28;25065;-69
2023/03/02 09:36:55;;;;;;;31.42;15.77;;;0.40;99.90;;;;;;5036653;28;25071;-69
2023/03/02 09:39:22;;;;;;;35.10;14.57;;;0.40;99.90;;;;;;5018486;28;25056;-69
2023/03/02 09:41:59;;;;;;;36.70;14.07;;;0.50;99.90;;;;;;5036210;28;25066;-69
2023/03/02 09:44:54;;;;;;;36.80;14.20;;;0.60;99.90;;;;;;5018421;28;25054;-70
2023/03/02 09:47:43;;;;;;;33.20;14.80;;;0.60;99.90;;;;;;5018384;28;25069;-69
2023/03/02 09:50:26;;;;;;;28.00;12.82;;;0.70;99.90;;;;;;5037059;28;25065;-70
2023/03/02 09:52:59;;;;;;;30.80;13.05;;;0.80;99.90;;;;;;5039944;28;25103;-70
2023/03/02 09:55:32;;;;;;;29.63;14.25;;;0.90;99.90;;;;;;5040175;28;25074;-69
2023/03/02 09:58:05;;;;;;;31.15;14.75;;;0.90;99.90;;;;;;5040165;28;25085;-73
2023/03/02 10:00:42;;;;;;;29.80;14.63;;;0.90;99.90;;;;;;5040095;28;25163;-72
2023/03/02 10:03:16;;;;;;;32.72;14.23;;;1.00;99.90;;;;;;5039852;28;25059;-71
2023/03/02 10:05:49;;;;;;;29.25;13.23;;;1.00;99.90;;;;;;5040180;28;25075;-69
2023/03/02 10:08:23;;;;;;;34.38;14.77;;;1.10;99.90;;;;;;5039656;28;25050;-70
2023/03/02 10:11:08;;;;;;;33.38;13.75;;;1.10;99.90;;;;;;5039278;28;25063;-69
2023/03/02 10:13:52;;;;;;;35.60;14.77;;;1.20;99.90;;;;;;5039350;28;25130;-70
2023/03/02 10:16:23;;;;;;;36.20;16.02;;;1.20;99.90;;;;;;5039471;28;25065;-70
2023/03/02 10:19:07;;;;;;;36.53;16.33;;;1.20;99.90;;;;;;5039465;28;25125;-70
2023/03/02 10:21:42;;;;;;;36.58;16.13;;;1.30;99.90;;;;;;5039488;28;25066;-69
2023/03/02 10:24:40;;;;;;;35.85;14.82;;;1.30;99.90;;;;;;5039646;28;25052;-68
2023/03/02 10:27:19;;;;;;;36.88;15.13;;;1.30;99.90;;;;;;5039228;28;25136;-70
2023/03/02 10:30:28;;;;;;;34.60;15.50;;;1.40;99.90;;;;;;5039554;28;25078;-71
2023/03/02 10:33:01;;;;;;;36.05;15.13;;;1.40;99.90;;;;;;5038822;28;25070;-71
2023/03/02 10:35:30;;;;;;;31.95;13.60;;;1.50;99.90;;;;;;5021540;28;25074;-72
2023/03/02 10:38:16;;;;;;;33.10;15.25;;;1.60;99.90;;;;;;5038853;28;25077;-71
2023/03/02 10:41:03;;;;;;;35.42;15.85;;;1.60;99.90;;;;;;5039132;28;25081;-71
2023/03/02 10:43:30;;;;;;;;;;;1.70;99.90;;;;;;5039203;28;25135;-72
2023/03/02 10:46:07;;;;;;;32.05;13.98;;;1.70;99.90;;;;;;5039240;28;25057;-71
2023/03/02 10:48:56;;;;;;;34.35;15.32;;;1.80;99.90;;;;;;5038622;28;25076;-71
2023/03/02 10:51:34;;;;;;;31.52;13.90;;;1.80;99.90;;;;;;5039119;28;25054;-71
2023/03/02 10:54:14;;;;;;;31.17;13.23;;;1.90;99.90;;;;;;5038558;28;25044;-71
2023/03/02 10:56:43;;;;;;;28.05;11.63;;;1.90;99.90;;;;;;5038439;28;25100;-72
2023/03/02 10:59:28;;;;;;;28.27;12.93;;;2.00;99.90;;;;;;5020954;28;25065;-72
2023/03/02 11:02:15;;;;;;;27.90;12.23;;;2.10;99.90;;;;;;5038178;28;25131;-70
2023/03/02 11:04:42;;;;;;;27.10;10.05;;;2.10;99.90;;;;;;5038317;28;25071;-70
2023/03/02 11:07:19;;;;;;;26.30;11.73;;;2.20;99.90;;;;;;5020703;28;25118;-71
2023/03/02 11:09:56;;;;;;;;;;;2.20;99.90;;;;;;5038730;28;25090;-70
2023/03/02 11:12:24;;;;;;;23.88;10.55;;;2.20;99.90;;;;;;5038866;28;25053;-71
2023/03/02 11:15:16;;;;;;;25.52;11.00;;;2.30;99.90;;;;;;5020654;28;25113;-71
2023/03/02 11:17:48;;;;;;;28.92;12.18;;;2.30;99.90;;;;;;5038007;28;25067;-72
2023/03/02 11:20:29;;;;;;;29.38;11.48;;;2.40;99.90;;;;;;5038008;28;25073;-72
2023/03/02 11:23:22;;;;;;;29.60;12.43;;;2.40;99.90;;;;;;5038313;28;25122;-73
2023/03/02 11:26:18;;;;;;;26.20;11.85;;;2.50;99.90;;;;;;5038245;28;25061;-73
2023/03/02 11:29:12;;;;;;;30.63;12.02;;;2.50;99.90;;;;;;5037501;28;25051;-73
2023/03/02 11:31:43;;;;;;;23.52;11.13;;;2.60;99.90;;;;;;5038335;28;25108;-71
2023/03/02 11:34:36;;;;;;;21.33;9.93;;;2.60;99.90;;;;;;5038036;28;25066;-71
2023/03/02 11:37:23;;;;;;;23.13;10.23;;;2.70;99.90;;;;;;5038080;28;25125;-72
2023/03/02 11:39:50;;;;;;;25.23;11.45;;;2.70;99.90;;;;;;5037928;28;25080;-71
2023/03/02 11:42:34;;;;;;;24.48;11.40;;;2.80;99.90;;;;;;5037576;28;25103;-71
2023/03/02 11:45:44;;;;;;;21.33;10.00;;;2.80;99.90;;;;;;5037882;28;25105;-71
2023/03/02 11:48:39;;;;;;;25.02;10.93;;;2.90;99.90;;;;;;5029515;28;25056;-72
2023/03/02 11:51:16;;;;;;;22.60;10.93;;;3.00;99.90;;;;;;5037671;28;25064;-71
2023/03/02 11:54:01;;;;;;;24.70;11.48;;;3.10;99.90;;;;;;5037440;28;25135;-70
2023/03/02 11:56:32;;;;;;;23.27;10.73;;;3.10;99.90;;;;;;5037270;28;25062;-71
2023/03/02 11:59:10;;;;;;;19.67;9.77;;;3.20;99.90;;;;;;5037861;28;25057;-70
2023/03/02 12:01:39;;;;;;;21.55;11.13;;;3.30;99.90;;;;;;5037258;28;25064;-70
2023/03/02 12:04:34;;;;;;;22.33;11.10;;;3.30;99.90;;;;;;5037038;28;25133;-70
2023/03/02 12:07:16;;;;;;;22.40;10.73;;;3.40;99.90;;;;;;5017512;28;25066;-70
2023/03/02 12:09:44;;;;;;;22.52;10.50;;;3.40;99.90;;;;;;5019587;28;25125;-69
2023/03/02 12:12:56;;;;;;;21.58;10.38;;;3.50;99.90;;;;;;5019388;28;25127;-70
2023/03/02 12:15:38;;;;;;;17.15;8.60;;;3.60;99.90;;;;;;5034579;28;25083;-70
2023/03/02 12:18:21;;;;;;;19.23;9.27;;;3.60;99.90;;;;;;5037458;28;25119;-70
2023/03/02 12:21:12;;;;;;;20.52;10.30;;;3.70;99.90;;;;;;5037422;28;25122;-70
2023/03/02 12:23:51;;;;;;;20.58;9.95;;;3.80;99.90;;;;;;5019399;28;25109;-70
2023/03/02 12:26:28;;;;;;;20.13;9.70;;;3.90;99.90;;;;;;5037362;28;25071;-70
2023/03/02 12:29:12;;;;;;;17.58;10.10;;;3.90;99.90;;;;;;5037304;28;25079;-70
2023/03/02 12:31:52;;;;;;;23.98;9.10;;;3.90;99.90;;;;;;5036578;28;25072;-70
2023/03/02 12:34:34;;;;;;;19.42;9.32;;;4.00;99.90;;;;;;5036651;28;25110;-71
2023/03/02 12:37:22;;;;;;;18.63;9.07;;;4.00;99.90;;;;;;5019433;28;25101;-70
2023/03/02 12:40:25;;;;;;;19.77;8.85;;;4.20;99.90;;;;;;5036560;28;25053;-71
2023/03/02 12:43:32;;;;;;;20.40;9.57;;;4.20;99.90;;;;;;5036607;28;25060;-70
2023/03/02 12:46:02;;;;;;;20.45;10.02;;;4.20;99.90;;;;;;5037429;28;25083;-71
2023/03/02 12:48:40;;;;;;;21.60;10.00;;;4.30;99.90;;;;;;5036650;28;25107;-71
2023/03/02 12:51:23;;;;;;;20.65;9.88;;;4.30;99.90;;;;;;5037079;28;25076;-71
2023/03/02 12:54:07;;;;;;;17.75;8.55;;;4.40;99.90;;;;;;5036439;28;25071;-72
2023/03/02 12:56:34;;;;;;;21.90;9.50;;;4.50;99.90;;;;;;5036418;28;25072;-71
2023/03/02 12:59:01;;;;;;;18.90;9.50;;;4.50;99.90;;;;;;5036666;28;25150;-72
2023/03/02 13:01:31;;;;;;;16.75;8.52;;;4.60;99.90;;;;;;5018898;28;25056;-72
2023/03/02 13:03:59;;;;;;;18.58;9.15;;;4.70;99.90;;;;;;5036821;28;25058;-72